Repto Costa del Sol, Puerto Rico
Current Conditions -  °F | °C
As of 3:56 PM on Wednesday 17 Dec 2014 (Local Time) from TJSJ Reporting Station
Scattered Clouds Scattered Clouds  
Wind Chill: 82°   Ceiling: Unl
Heat Index: 85°   Visibility: 10mi
Dew Point: 69°   Wind: 8mph
Humidity: 65%   Direction: 360°N
Pressure: 29.99"   Gusts: NA
Location:  18.3817°N, 65.8302°W
Report Text: TJSJ 171956Z 36007KT 10SM SCT029 SCT036 28/21 A2999 RMK AO2 SLP154 T02780206
Loading
Personal Weather Stations






























Interactive Weather Map New forecast layout! Learn more

10-Day Weather Forecast

Advertisements
Track Severe Weather on mobile